createdAt,value
2018-12-05T00:01:43.951Z,39593.88
2018-12-05T00:04:11.172Z,39618.03
2018-12-05T00:06:29.769Z,39579.39
2018-12-05T00:11:06.362Z,39613.20
2018-12-05T00:13:15.199Z,39632.52
2018-12-05T00:15:24.176Z,39612.23
2018-12-05T00:17:33.556Z,39610.30
2018-12-05T00:19:48.408Z,39618.03
2018-12-05T00:21:54.364Z,39603.54
2018-12-05T00:24:01.196Z,39590.98
2018-12-05T00:26:07.011Z,39603.54
2018-12-05T00:28:12.974Z,39599.68
2018-12-05T00:30:18.738Z,39601.61
2018-12-05T00:32:23.764Z,39596.78
2018-12-05T00:34:28.875Z,39607.40
2018-12-05T00:36:34.372Z,39592.91
2018-12-05T00:38:40.257Z,39584.22
2018-12-05T00:40:46.308Z,39582.29
2018-12-05T00:42:52.094Z,39582.29
2018-12-05T00:44:56.957Z,39603.54
2018-12-05T00:47:02.434Z,39607.40
2018-12-05T00:49:07.799Z,39584.22
2018-12-05T00:51:13.930Z,39626.72
2018-12-05T00:53:20.295Z,39599.68
2018-12-05T00:55:25.281Z,39574.57
2018-12-05T00:57:30.389Z,39581.32
2018-12-05T00:59:35.917Z,39559.11
2018-12-05T01:01:46.787Z,39596.78
2018-12-05T01:03:56.801Z,39556.21
2018-12-05T01:06:04.495Z,39611.27
2018-12-05T01:08:09.539Z,39583.26
2018-12-05T01:10:14.347Z,39557.18
2018-12-05T01:12:20.408Z,39558.14
2018-12-05T01:14:25.209Z,39568.77
2018-12-05T01:16:30.146Z,39546.55
2018-12-05T01:18:37.357Z,39600.64
2018-12-05T01:20:43.551Z,39583.26
2018-12-05T01:22:49.264Z,39561.04
2018-12-05T01:24:54.117Z,39576.50
2018-12-05T01:26:58.948Z,39572.63
2018-12-05T01:29:04.214Z,39560.08
2018-12-05T01:31:09.341Z,39575.53
2018-12-05T01:33:14.177Z,39584.22
2018-12-05T01:35:26.442Z,39573.60
2018-12-05T01:37:31.248Z,39556.21
2018-12-05T01:39:38.180Z,39564.91
2018-12-05T01:41:43.174Z,39527.24
2018-12-05T01:43:48.283Z,39547.52
2018-12-05T01:45:53.664Z,39529.17
2018-12-05T01:47:59.169Z,39530.14
2018-12-05T01:50:07.947Z,39525.31
2018-12-05T01:52:20.428Z,39519.51
2018-12-05T01:54:28.185Z,39509.86
2018-12-05T01:56:33.942Z,39482.81
2018-12-05T01:58:38.988Z,39507.92
2018-12-05T02:00:44.030Z,39498.27
2018-12-05T02:02:51.814Z,39499.23
2018-12-05T02:04:57.930Z,39467.36
2018-12-05T02:07:03.408Z,39525.31
2018-12-05T02:09:13.061Z,39493.44
2018-12-05T02:11:17.843Z,39509.86
2018-12-05T02:13:27.579Z,39505.99
2018-12-05T02:15:32.382Z,39499.23
2018-12-05T02:17:45.439Z,39488.61
2018-12-05T02:19:51.053Z,39478.95
2018-12-05T02:21:56.106Z,39513.72
2018-12-05T02:24:00.927Z,39520.48
2018-12-05T02:26:05.995Z,39514.68
2018-12-05T02:28:11.445Z,39450.94
2018-12-05T02:30:17.746Z,39482.81
2018-12-05T02:32:22.538Z,39459.63
2018-12-05T02:34:27.460Z,39471.22
2018-12-05T02:36:32.265Z,39486.68
2018-12-05T02:38:37.182Z,39452.87
2018-12-05T02:40:42.192Z,39439.35
2018-12-05T02:42:47.267Z,39446.11
2018-12-05T02:44:57.390Z,39435.49
2018-12-05T02:47:02.411Z,39447.08
2018-12-05T02:49:07.338Z,39460.60
2018-12-05T02:51:14.951Z,39458.67
2018-12-05T02:53:19.640Z,39450.94
2018-12-05T02:55:24.379Z,39413.28
2018-12-05T02:57:29.285Z,39412.31
2018-12-05T02:59:34.030Z,39422.93
2018-12-05T03:01:39.021Z,39411.34
2018-12-05T03:03:43.719Z,39405.55
2018-12-05T03:05:48.474Z,39431.62
2018-12-05T03:07:53.237Z,38314.39
2018-12-05T03:09:57.932Z,39406.52
2018-12-05T03:12:02.938Z,39421.97
2018-12-05T03:14:07.748Z,39412.31
2018-12-05T03:16:12.462Z,39424.86
2018-12-05T03:18:17.162Z,39426.80
2018-12-05T03:20:22.011Z,39435.49
2018-12-05T03:22:26.827Z,39401.69
2018-12-05T03:24:32.098Z,39405.55
2018-12-05T03:26:38.706Z,39347.60
2018-12-05T03:28:43.559Z,39401.69
2018-12-05T03:30:48.255Z,39497.30
2018-12-05T03:32:53.184Z,39404.58
2018-12-05T03:34:58.462Z,39452.87
2018-12-05T03:37:03.346Z,39439.35
2018-12-05T03:39:09.939Z,39408.45
2018-12-05T03:41:14.789Z,39475.09
2018-12-05T03:43:19.602Z,39421.00
2018-12-05T03:45:24.391Z,39455.77
2018-12-05T03:47:29.265Z,39506.96
2018-12-05T03:49:34.125Z,39477.02
2018-12-05T03:51:39.145Z,39505.03
2018-12-05T03:53:43.920Z,39536.90
2018-12-05T03:55:48.754Z,39169.91
2018-12-05T03:57:53.535Z,39552.35
2018-12-05T03:59:58.495Z,39509.86
2018-12-05T04:02:03.703Z,39525.31
2018-12-05T04:04:08.743Z,39565.87
2018-12-05T04:06:13.786Z,39527.24
2018-12-05T04:08:19.408Z,39522.41
2018-12-05T04:10:24.123Z,39505.99
2018-12-05T04:12:28.986Z,39524.34
2018-12-05T04:14:34.002Z,39525.31
2018-12-05T04:16:38.789Z,39454.80
2018-12-05T04:18:43.643Z,39532.07
2018-12-05T04:20:48.531Z,39527.24
2018-12-05T04:22:53.589Z,39538.83
2018-12-05T04:24:58.430Z,39546.55
2018-12-05T04:27:03.507Z,39579.39
2018-12-05T04:29:08.728Z,39554.29
2018-12-05T04:31:13.788Z,39566.84
2018-12-05T04:33:18.799Z,39515.65
2018-12-05T04:35:24.081Z,39551.39
2018-12-05T04:37:29.694Z,39534.00
2018-12-05T04:39:34.871Z,39538.83
2018-12-05T04:41:39.681Z,39552.35
2018-12-05T04:43:44.534Z,39523.38
2018-12-05T04:45:49.797Z,39537.86
2018-12-05T04:47:54.754Z,39545.59
2018-12-05T04:49:59.811Z,39566.84
2018-12-05T04:52:04.819Z,39525.31
2018-12-05T04:54:09.839Z,39562.98
2018-12-05T04:56:14.895Z,39602.57
2018-12-05T04:58:20.012Z,39590.98
2018-12-05T05:00:24.877Z,39568.77
2018-12-05T05:02:29.873Z,39545.59
2018-12-05T05:04:34.995Z,39564.91
2018-12-05T05:06:41.877Z,39566.84
2018-12-05T05:08:47.026Z,39600.64
2018-12-05T05:10:52.308Z,39563.94
2018-12-05T05:12:57.504Z,39569.74
2018-12-05T05:15:02.444Z,39590.98
2018-12-05T05:17:08.563Z,39587.12
2018-12-05T05:19:13.453Z,39598.71
2018-12-05T05:21:18.502Z,39609.34
2018-12-05T05:23:23.365Z,39606.44
2018-12-05T05:25:28.207Z,39598.71
2018-12-05T05:27:32.928Z,39601.61
2018-12-05T05:29:37.877Z,39638.31
2018-12-05T05:31:43.009Z,38688.05
2018-12-05T05:33:48.081Z,39612.23
2018-12-05T05:35:52.869Z,39624.79
2018-12-05T05:37:57.808Z,39614.16
2018-12-05T05:40:02.751Z,39624.79
2018-12-05T05:42:08.085Z,39620.93
2018-12-05T05:44:13.021Z,39751.32
2018-12-05T05:46:17.848Z,39635.41
2018-12-05T05:48:23.075Z,39613.20
2018-12-05T05:50:28.091Z,39550.42
2018-12-05T05:52:33.377Z,39585.19
2018-12-05T05:54:38.174Z,39589.05
2018-12-05T05:56:43.192Z,39593.88
2018-12-05T05:58:48.297Z,39646.04
2018-12-05T06:00:53.339Z,39631.55
2018-12-05T06:02:58.250Z,39637.34
2018-12-05T06:05:03.069Z,39612.23
2018-12-05T06:07:08.052Z,39545.59
2018-12-05T06:09:12.961Z,39623.82
2018-12-05T06:11:17.838Z,39590.02
2018-12-05T06:13:22.645Z,39618.99
2018-12-05T06:15:27.791Z,39621.89
2018-12-05T06:17:32.740Z,39625.75
2018-12-05T06:19:37.723Z,39616.10
2018-12-05T06:21:42.929Z,39634.45
2018-12-05T06:23:47.983Z,39612.23
2018-12-05T06:25:52.885Z,39630.58
2018-12-05T06:27:57.638Z,39600.64
2018-12-05T06:30:02.775Z,39606.44
2018-12-05T06:32:08.009Z,39623.82
2018-12-05T06:34:14.810Z,39595.81
2018-12-05T06:36:41.152Z,39581.32
2018-12-05T06:38:46.149Z,39626.72
2018-12-05T06:40:51.180Z,39640.24
2018-12-05T06:42:56.130Z,39615.13
2018-12-05T06:45:00.995Z,39643.14
2018-12-05T06:47:06.086Z,39635.41
2018-12-05T06:49:10.908Z,39647.00
2018-12-05T06:51:15.735Z,39627.69
2018-12-05T06:53:20.621Z,39626.72
2018-12-05T06:55:25.390Z,39661.49
2018-12-05T06:57:30.216Z,39543.66
2018-12-05T06:59:35.160Z,39633.48
2018-12-05T07:01:39.848Z,39724.27
2018-12-05T07:03:44.741Z,39661.49
2018-12-05T07:05:49.805Z,39652.80
2018-12-05T07:07:54.579Z,39664.39
2018-12-05T07:09:59.447Z,39647.00
2018-12-05T07:12:04.311Z,39641.21
2018-12-05T07:14:09.247Z,39675.02
2018-12-05T07:16:13.930Z,39631.55
2018-12-05T07:18:18.660Z,39647.97
2018-12-05T07:20:24.213Z,39635.41
2018-12-05T07:22:28.947Z,39637.34
2018-12-05T07:24:33.962Z,39630.58
2018-12-05T07:26:39.101Z,39646.04
2018-12-05T07:28:51.830Z,39636.38
2018-12-05T07:30:57.990Z,39635.41
2018-12-05T07:33:02.813Z,39731.04
2018-12-05T07:35:08.488Z,39641.21
2018-12-05T07:37:13.278Z,39654.73
2018-12-05T07:39:18.037Z,39647.00
2018-12-05T07:41:22.977Z,39646.04
2018-12-05T07:43:27.795Z,39647.97
2018-12-05T07:45:32.691Z,39673.08
2018-12-05T07:47:37.377Z,39657.63
2018-12-05T07:52:22.280Z,39680.81
2018-12-05T07:54:27.170Z,39657.63
2018-12-05T07:56:32.001Z,39666.32
2018-12-05T07:58:37.045Z,39639.28
2018-12-05T08:00:41.823Z,39655.70
2018-12-05T08:02:46.677Z,39567.80
2018-12-05T08:04:52.386Z,39655.70
2018-12-05T08:06:57.490Z,39660.52
2018-12-05T08:09:04.814Z,39678.88
2018-12-05T08:11:10.879Z,39703.99
2018-12-05T08:13:16.587Z,39741.66
2018-12-05T08:15:21.625Z,39681.77
2018-12-05T08:17:27.235Z,39709.79
2018-12-05T08:19:33.163Z,39703.02
2018-12-05T08:23:55.350Z,39700.12
2018-12-05T08:28:14.937Z,39682.74
2018-12-05T08:30:19.778Z,39705.92
2018-12-05T08:32:24.666Z,39725.24
2018-12-05T08:34:29.417Z,39729.10
2018-12-05T08:36:34.153Z,39729.10
2018-12-05T08:38:39.447Z,39666.32
2018-12-05T08:40:44.264Z,39711.72
2018-12-05T08:42:49.357Z,39703.99
2018-12-05T08:44:54.342Z,39723.30
2018-12-05T08:46:59.185Z,39725.24
2018-12-05T08:49:04.259Z,39706.89
2018-12-05T08:51:09.222Z,39710.75
2018-12-05T08:53:14.244Z,39756.15
2018-12-05T08:55:19.022Z,39906.83
2018-12-05T08:57:23.863Z,39713.65
2018-12-05T08:59:28.539Z,39738.76
2018-12-05T09:01:33.767Z,39726.20
2018-12-05T09:03:38.471Z,39767.74
2018-12-05T09:05:43.295Z,39735.86
2018-12-05T09:07:48.056Z,39725.24
2018-12-05T09:09:52.927Z,39764.84
2018-12-05T09:11:57.672Z,39760.01
2018-12-05T09:14:02.498Z,39788.02
2018-12-05T09:16:07.307Z,39743.59
2018-12-05T09:18:12.381Z,39771.60
2018-12-05T09:20:17.139Z,39762.91
2018-12-05T09:22:22.213Z,39762.91
2018-12-05T09:24:27.373Z,39792.85
2018-12-05T09:26:32.293Z,39801.54
2018-12-05T09:28:37.072Z,39789.95
2018-12-05T09:30:41.909Z,39782.23
2018-12-05T09:32:46.808Z,39767.74
2018-12-05T09:34:51.679Z,39802.51
2018-12-05T09:36:56.448Z,39824.73
2018-12-05T09:39:01.319Z,39798.64
2018-12-05T09:41:06.436Z,39808.30
2018-12-05T09:43:11.493Z,39821.83
2018-12-05T09:45:16.859Z,39812.17
2018-12-05T09:47:21.832Z,39833.42
2018-12-05T09:49:26.629Z,39834.38
2018-12-05T09:53:57.889Z,39825.69
2018-12-05T09:56:02.834Z,39855.63
2018-12-05T09:58:07.731Z,39860.46
2018-12-05T10:00:12.791Z,39851.77
2018-12-05T10:02:19.561Z,39853.70
2018-12-05T10:04:24.527Z,39845.98
2018-12-05T10:06:29.657Z,39877.85
2018-12-05T10:08:35.056Z,39873.02
2018-12-05T10:10:40.006Z,39849.84
2018-12-05T10:12:44.924Z,39848.87
2018-12-05T10:14:50.437Z,39899.10
2018-12-05T10:16:55.581Z,39916.49
2018-12-05T10:19:00.498Z,39874.95
2018-12-05T10:21:05.302Z,39897.17
2018-12-05T10:23:10.057Z,39899.10
2018-12-05T10:25:15.497Z,39886.54
2018-12-05T10:27:20.352Z,39911.66
2018-12-05T10:29:25.304Z,39903.93
2018-12-05T10:31:30.113Z,39926.15
2018-12-05T10:33:35.515Z,39923.25
2018-12-05T10:35:41.401Z,39917.45
2018-12-05T10:37:46.572Z,39904.90
2018-12-05T10:39:51.375Z,39897.17
2018-12-05T10:41:56.343Z,39922.28
2018-12-05T10:44:02.073Z,39929.04
2018-12-05T10:46:06.868Z,39932.91
2018-12-05T10:48:12.534Z,39940.64
2018-12-05T10:50:17.584Z,39960.92
2018-12-05T10:52:22.619Z,39944.50
2018-12-05T10:54:27.592Z,39898.14
2018-12-05T10:56:32.347Z,39985.07
2018-12-05T10:58:37.539Z,39975.41
2018-12-05T11:00:47.452Z,39981.21
2018-12-05T11:02:57.886Z,39906.83
2018-12-05T11:05:07.655Z,39977.34
2018-12-05T11:07:17.403Z,39977.34
2018-12-05T11:09:27.201Z,39939.67
2018-12-05T11:11:36.934Z,39956.09
2018-12-05T11:13:46.896Z,39974.44
2018-12-05T11:15:56.773Z,39986.04
2018-12-05T11:18:06.483Z,40070.07
2018-12-05T11:20:16.518Z,39955.12
2018-12-05T11:22:26.487Z,39982.17
2018-12-05T11:26:53.048Z,40002.46
2018-12-05T11:28:58.105Z,39963.82
2018-12-05T11:31:02.914Z,39979.27
2018-12-05T11:33:07.710Z,39988.93
2018-12-05T11:35:12.508Z,39990.86
2018-12-05T11:37:17.208Z,39981.21
2018-12-05T11:39:21.958Z,39982.17
2018-12-05T11:41:26.718Z,40002.46
2018-12-05T11:43:31.511Z,39956.09
2018-12-05T11:45:36.243Z,39976.37
2018-12-05T11:47:41.134Z,39994.73
2018-12-05T11:49:45.989Z,39985.07
2018-12-05T11:51:50.741Z,40004.39
2018-12-05T11:53:55.657Z,40009.22
2018-12-05T11:56:00.479Z,39965.75
2018-12-05T11:58:05.500Z,39980.24
2018-12-05T12:00:10.701Z,39971.55
2018-12-05T12:02:22.181Z,39959.95
2018-12-05T12:04:23.661Z,39966.71
2018-12-05T12:06:28.510Z,39987.00
2018-12-05T12:08:33.713Z,39954.16
2018-12-05T12:10:40.792Z,40002.46
2018-12-05T12:12:51.357Z,39966.71
2018-12-05T12:14:56.135Z,39992.80
2018-12-05T12:17:01.041Z,39988.93
2018-12-05T12:19:05.905Z,39994.73
2018-12-05T12:21:10.998Z,40017.91
2018-12-05T12:23:16.241Z,39901.03
2018-12-05T12:25:22.009Z,40013.08
2018-12-05T12:27:27.209Z,40023.71
2018-12-05T12:29:32.047Z,40025.64
2018-12-05T12:31:36.973Z,40017.91
2018-12-05T12:33:41.871Z,39966.71
2018-12-05T12:35:46.990Z,40019.84
2018-12-05T12:37:51.927Z,40058.48
2018-12-05T12:39:56.967Z,40034.33
2018-12-05T12:42:01.854Z,40074.90
2018-12-05T12:44:06.852Z,39927.11
2018-12-05T12:46:11.720Z,40048.82
2018-12-05T12:48:16.876Z,40098.09
2018-12-05T12:50:21.922Z,40050.75
2018-12-05T12:52:26.954Z,40064.28
2018-12-05T12:54:31.906Z,40037.23
2018-12-05T12:56:37.047Z,40098.09
2018-12-05T12:58:42.107Z,40028.54
2018-12-05T13:00:47.954Z,40043.99
2018-12-05T13:02:53.510Z,40068.14
2018-12-05T13:04:58.507Z,39972.51
2018-12-05T13:07:03.777Z,40048.82
2018-12-05T13:09:09.602Z,40070.07
2018-12-05T13:11:14.716Z,40046.89
2018-12-05T13:13:19.883Z,40023.71
2018-12-05T13:15:25.351Z,40063.31
2018-12-05T13:17:31.035Z,40038.20
2018-12-05T13:19:36.031Z,40029.50
2018-12-05T13:21:41.121Z,40059.45
2018-12-05T13:23:46.124Z,40049.79
2018-12-05T13:25:51.113Z,40064.28
2018-12-05T13:28:03.962Z,40064.28
2018-12-05T13:30:09.371Z,40049.79
2018-12-05T13:32:14.615Z,40021.77
2018-12-05T13:34:19.503Z,40091.32
2018-12-05T13:36:24.756Z,40067.18
2018-12-05T13:38:30.424Z,40056.55
2018-12-05T13:40:35.978Z,40077.80
2018-12-05T13:42:40.780Z,40020.81
2018-12-05T13:44:45.793Z,40044.96
2018-12-05T14:23:50.774Z,40050.75
2018-12-05T14:25:56.530Z,40063.31
2018-12-05T14:28:01.386Z,40061.38
2018-12-05T14:30:07.821Z,40074.90
2018-12-05T14:32:13.900Z,40070.07
2018-12-05T14:34:18.802Z,40029.50
2018-12-05T14:36:29.255Z,40054.62
2018-12-05T14:38:39.076Z,40043.99
2018-12-05T14:40:43.948Z,40080.70
2018-12-05T14:42:49.061Z,40084.56
2018-12-05T14:44:54.188Z,40050.75
2018-12-05T14:46:59.133Z,40036.27
2018-12-05T14:49:04.059Z,40055.59
2018-12-05T14:55:42.384Z,40031.44
2018-12-05T14:57:47.271Z,40084.56
2018-12-05T14:59:52.454Z,40049.79
2018-12-05T15:01:57.372Z,40045.93
2018-12-05T15:04:03.807Z,40024.67
2018-12-05T15:06:08.589Z,40066.21
2018-12-05T15:08:13.535Z,40028.54
2018-12-05T15:10:18.456Z,40044.96
2018-12-05T15:12:23.289Z,40046.89
2018-12-05T15:14:29.792Z,40078.77
2018-12-05T15:16:34.729Z,40060.41
2018-12-05T15:18:39.513Z,40048.82
2018-12-05T15:20:44.875Z,40065.24
2018-12-05T15:22:49.845Z,40055.59
2018-12-05T15:24:54.706Z,40067.18
2018-12-05T15:26:59.694Z,40062.35
2018-12-05T15:29:04.587Z,40093.26
2018-12-05T15:31:09.719Z,40051.72
2018-12-05T15:33:14.596Z,40062.35
2018-12-05T15:35:19.751Z,40030.47
2018-12-05T15:37:25.152Z,40042.06
2018-12-05T15:39:29.994Z,40030.47
2018-12-05T15:41:35.151Z,40036.27
2018-12-05T15:43:40.096Z,40060.41
2018-12-05T15:45:44.991Z,40098.09
2018-12-05T15:47:49.977Z,40076.84
2018-12-05T15:49:54.842Z,40060.41
2018-12-05T15:51:59.796Z,40055.59
2018-12-05T15:54:05.936Z,40061.38
2018-12-05T15:56:10.783Z,40079.73
2018-12-05T15:58:15.750Z,40063.31
2018-12-05T16:00:21.164Z,40083.60
2018-12-05T16:02:26.466Z,40070.07
2018-12-05T16:04:31.322Z,40063.31
2018-12-05T16:06:36.299Z,40055.59
2018-12-05T16:08:41.214Z,40050.75
2018-12-05T16:10:46.705Z,40057.52
2018-12-05T16:12:51.671Z,40057.52
2018-12-05T16:14:56.863Z,40048.82
2018-12-05T16:17:02.278Z,40023.71
2018-12-05T16:19:07.273Z,40076.84
2018-12-05T16:21:12.215Z,40076.84
2018-12-05T16:23:17.551Z,40045.93
2018-12-05T16:25:22.980Z,40081.66
2018-12-05T16:27:27.923Z,40016.95
2018-12-05T16:29:33.380Z,40072.01
2018-12-05T16:31:39.499Z,40023.71
2018-12-05T16:33:44.371Z,40072.97
2018-12-05T16:35:49.203Z,40037.23
2018-12-05T16:37:56.177Z,40034.33
2018-12-05T16:40:01.161Z,40045.93
2018-12-05T16:42:06.494Z,40038.20
2018-12-05T16:44:13.013Z,40049.79
2018-12-05T16:46:18.284Z,40030.47
2018-12-05T16:48:23.320Z,40054.62
2018-12-05T16:50:28.379Z,40079.73
2018-12-05T16:52:33.239Z,40077.80
2018-12-05T16:54:38.383Z,40057.52
2018-12-05T16:56:44.693Z,40035.30
2018-12-05T16:58:49.840Z,40026.61
2018-12-05T17:00:54.711Z,40050.75
2018-12-05T17:02:59.858Z,40089.39
2018-12-05T17:05:05.230Z,40051.72
2018-12-05T17:07:10.002Z,40100.02
2018-12-05T17:09:14.763Z,40084.56
2018-12-05T17:11:19.950Z,40035.30
2018-12-05T17:13:25.045Z,40051.72
2018-12-05T17:15:30.263Z,40053.65
2018-12-05T17:17:35.150Z,40053.65
2018-12-05T17:19:40.553Z,40058.48
2018-12-05T17:21:45.482Z,40073.94
2018-12-05T17:23:50.324Z,40017.91
2018-12-05T17:25:56.268Z,40058.48
2018-12-05T17:28:01.525Z,40065.24
2018-12-05T17:30:09.046Z,40068.14
2018-12-05T17:32:14.907Z,40081.66
2018-12-05T17:34:22.690Z,40072.97
2018-12-05T17:36:29.316Z,40120.30
2018-12-05T17:38:34.651Z,40085.53
2018-12-05T17:40:40.160Z,40054.62
2018-12-05T17:42:45.913Z,40063.31
2018-12-05T17:44:51.590Z,40053.65
2018-12-05T17:46:59.174Z,40061.38
2018-12-05T17:49:04.097Z,40054.62
2018-12-05T17:51:11.496Z,40072.01
2018-12-05T17:53:19.304Z,40040.13
2018-12-05T17:55:24.334Z,40013.08
2018-12-05T17:57:29.522Z,40056.55
2018-12-05T17:59:34.678Z,40066.21
2018-12-05T18:01:39.718Z,40047.86
2018-12-05T18:03:44.677Z,40035.30
2018-12-05T18:05:49.958Z,40140.59
2018-12-05T18:07:54.818Z,40059.45
2018-12-05T18:09:59.835Z,40031.44
2018-12-05T18:12:04.795Z,40062.35
2018-12-05T18:14:09.827Z,40027.57
2018-12-05T18:16:14.880Z,40020.81
2018-12-05T18:18:22.311Z,40020.81
2018-12-05T18:20:27.390Z,40046.89
2018-12-05T18:22:32.138Z,40021.77
2018-12-05T18:24:37.586Z,40041.09
2018-12-05T18:26:43.244Z,40060.41
2018-12-05T18:28:48.074Z,40038.20
2018-12-05T18:30:53.203Z,40128.03
2018-12-05T18:32:58.094Z,40058.48
2018-12-05T18:35:03.155Z,40025.64
2018-12-05T18:37:08.300Z,39980.24
2018-12-05T18:39:13.813Z,40038.20
2018-12-05T18:41:19.806Z,40048.82
2018-12-05T18:43:24.984Z,40127.07
2018-12-05T18:45:31.346Z,40059.45
2018-12-05T18:47:36.507Z,40020.81
2018-12-05T18:49:41.579Z,40072.97
2018-12-05T18:51:46.407Z,40090.36
2018-12-05T18:53:52.596Z,40047.86
2018-12-05T18:55:57.422Z,40044.96
2018-12-05T18:58:02.477Z,40048.82
2018-12-05T19:00:10.210Z,40071.04
2018-12-05T19:02:15.452Z,40036.27
2018-12-05T19:04:20.693Z,40043.03
2018-12-05T19:06:26.046Z,40056.55
2018-12-05T19:08:34.360Z,40060.41
2018-12-05T19:10:39.099Z,39986.04
2018-12-05T19:12:48.280Z,40055.59
2018-12-05T19:14:53.647Z,40083.60
2018-12-05T19:16:58.607Z,40053.65
2018-12-05T19:19:03.480Z,40077.80
2018-12-05T19:21:08.777Z,40051.72
2018-12-05T19:23:14.129Z,40050.75
2018-12-05T19:25:20.081Z,39963.82
2018-12-05T19:27:26.606Z,40066.21
2018-12-05T19:29:31.638Z,40046.89
2018-12-05T19:31:36.677Z,40054.62
2018-12-05T19:33:42.576Z,40074.90
2018-12-05T19:35:50.971Z,40094.22
2018-12-05T19:37:56.150Z,40062.35
2018-12-05T19:40:01.622Z,40054.62
2018-12-05T19:42:06.739Z,40092.29
2018-12-05T19:44:22.805Z,40094.22
2018-12-05T19:46:28.516Z,40100.98
2018-12-05T19:48:34.069Z,40108.71
2018-12-05T19:50:38.899Z,40084.56
2018-12-05T19:52:43.908Z,40082.63
2018-12-05T19:54:50.133Z,40095.19
2018-12-05T19:56:56.716Z,40104.85
2018-12-05T19:59:02.439Z,40081.66
2018-12-05T20:01:09.179Z,40081.66
2018-12-05T20:03:14.380Z,40119.34
2018-12-05T20:05:19.331Z,40107.75
2018-12-05T20:07:24.642Z,40107.75
2018-12-05T20:09:31.030Z,40127.07
2018-12-05T20:11:36.297Z,40118.38
2018-12-05T20:13:41.225Z,40077.80
2018-12-05T20:15:47.079Z,40081.66
2018-12-05T20:17:52.084Z,40123.20
2018-12-05T20:19:57.554Z,40101.95
2018-12-05T20:22:02.594Z,40107.75
2018-12-05T20:24:28.139Z,40096.16
2018-12-05T20:26:33.986Z,40106.78
2018-12-05T20:28:40.215Z,40116.44
2018-12-05T20:30:45.844Z,40087.46
2018-12-05T20:32:51.242Z,40095.19
2018-12-05T20:35:01.537Z,40094.22
2018-12-05T20:37:24.799Z,40096.16
2018-12-05T20:39:34.783Z,40107.75
2018-12-05T20:41:47.255Z,40124.17
2018-12-05T20:43:52.623Z,40085.53
2018-12-05T20:45:58.201Z,40132.86
2018-12-05T20:48:04.764Z,40074.90
2018-12-05T20:50:10.801Z,40084.56
2018-12-05T20:52:46.030Z,40093.26
2018-12-05T20:54:51.315Z,40084.56
2018-12-05T20:56:57.314Z,40084.56
2018-12-05T20:59:23.335Z,40066.21
2018-12-05T21:01:53.805Z,40078.77
2018-12-05T21:04:00.936Z,40073.94
2018-12-05T21:06:06.402Z,40090.36
2018-12-05T21:08:11.536Z,40115.48
2018-12-05T21:10:16.386Z,40097.12
2018-12-05T21:12:21.288Z,40104.85
2018-12-05T21:14:26.255Z,40090.36
2018-12-05T21:16:31.541Z,40090.36
2018-12-05T21:18:37.705Z,40001.49
2018-12-05T21:20:45.726Z,40116.44
2018-12-05T21:22:50.678Z,40127.07
2018-12-05T21:24:55.995Z,40102.92
2018-12-05T21:27:00.905Z,40121.27
2018-12-05T21:29:06.445Z,40134.80
2018-12-05T21:31:13.711Z,40111.61
2018-12-05T21:33:20.711Z,40131.89
2018-12-05T21:35:25.783Z,40092.29
2018-12-05T21:37:30.918Z,40100.02
2018-12-05T21:39:35.947Z,40156.05
2018-12-05T21:41:41.448Z,40127.07
2018-12-05T21:43:46.445Z,40129.00
2018-12-05T21:45:51.590Z,40092.29
2018-12-05T21:47:58.934Z,40106.78
2018-12-05T21:50:05.318Z,40095.19
2018-12-05T21:52:11.583Z,40116.44
2018-12-05T21:54:16.476Z,40117.41
2018-12-05T21:56:22.586Z,40120.30
2018-12-05T21:58:36.918Z,40094.22
2018-12-05T22:00:51.996Z,40111.61
2018-12-05T22:02:58.104Z,40134.80
2018-12-05T22:05:07.798Z,40128.03
2018-12-05T22:07:18.003Z,40063.31
2018-12-05T22:09:24.466Z,40082.63
2018-12-05T22:11:34.225Z,40093.26
2018-12-05T22:13:41.391Z,40123.20
2018-12-05T22:15:48.119Z,40108.71
2018-12-05T22:17:53.320Z,40098.09
2018-12-05T22:19:58.346Z,40111.61
2018-12-05T22:22:03.751Z,40129.00
2018-12-05T22:24:16.935Z,40120.30
2018-12-05T22:26:21.860Z,40100.98
2018-12-05T22:28:30.851Z,40105.82
2018-12-05T22:32:48.478Z,40134.80
2018-12-05T22:34:53.752Z,40102.92
2018-12-05T22:36:58.824Z,40087.46
2018-12-05T22:39:05.951Z,40100.98
2018-12-05T22:41:12.359Z,40095.19
2018-12-05T22:43:17.426Z,40124.17
2018-12-05T22:45:30.062Z,40120.30
2018-12-05T22:47:35.562Z,40124.17
2018-12-05T22:49:41.235Z,40133.83
2018-12-05T22:51:48.071Z,40128.03
2018-12-05T22:53:53.111Z,40113.54
2018-12-05T22:55:58.073Z,40140.59
2018-12-05T22:58:03.108Z,40098.09
2018-12-05T23:00:16.494Z,40123.20
2018-12-05T23:02:21.655Z,40150.25
2018-12-05T23:04:26.748Z,40123.20
2018-12-05T23:06:35.450Z,40203.38
2018-12-05T23:08:41.641Z,40192.75
2018-12-05T23:10:53.745Z,40119.34
2018-12-05T23:13:02.349Z,40127.07
2018-12-05T23:15:14.634Z,40166.67
2018-12-05T23:17:19.585Z,40125.14
2018-12-05T23:19:25.449Z,40128.03
2018-12-05T23:21:32.025Z,40153.15
2018-12-05T23:23:37.113Z,40153.15
2018-12-05T23:25:43.845Z,40154.11
2018-12-05T23:27:49.122Z,40136.73
2018-12-05T23:29:57.228Z,40127.07
2018-12-05T23:32:02.495Z,40149.29
2018-12-05T23:34:07.647Z,40128.03
2018-12-05T23:36:12.900Z,40116.44
2018-12-05T23:38:17.822Z,40154.11
2018-12-05T23:40:23.144Z,40120.30
2018-12-05T23:42:28.344Z,40122.24
2018-12-05T23:44:34.208Z,40140.59
2018-12-05T23:46:38.961Z,40072.01
2018-12-05T23:48:43.950Z,40138.66
2018-12-05T23:50:49.868Z,40155.08
2018-12-05T23:52:54.634Z,40160.88
2018-12-05T23:54:59.673Z,40182.13
2018-12-05T23:57:04.628Z,40177.30
2018-12-05T23:59:09.510Z,40218.84
